createdAt,value
2023-04-20T00:00:02.122Z,9.19
2023-04-20T00:01:02.476Z,9.14
2023-04-20T00:02:02.947Z,9.14
2023-04-20T00:03:03.279Z,9.11
2023-04-20T00:04:03.569Z,9.14
2023-04-20T00:05:03.933Z,9.11
2023-04-20T00:06:04.228Z,9.11
2023-04-20T00:07:04.562Z,9.08
2023-04-20T00:08:04.919Z,9.14
2023-04-20T00:09:05.267Z,9.19
2023-04-20T00:10:05.614Z,9.16
2023-04-20T00:11:06.011Z,9.14
2023-04-20T00:12:06.298Z,9.14
2023-04-20T00:13:06.641Z,9.21
2023-04-20T00:14:06.996Z,9.25
2023-04-20T00:15:07.322Z,9.23
2023-04-20T00:16:07.689Z,9.22
2023-04-20T00:17:08.059Z,9.19
2023-04-20T00:18:08.372Z,9.25
2023-04-20T00:19:08.757Z,9.28
2023-04-20T00:20:09.094Z,9.28
2023-04-20T00:21:09.454Z,9.23
2023-04-20T00:22:09.792Z,9.23
2023-04-20T00:23:10.132Z,9.28
2023-04-20T00:24:10.485Z,9.28
2023-04-20T00:25:10.814Z,9.25
2023-04-20T00:26:11.165Z,9.23
2023-04-20T00:27:11.500Z,9.22
2023-04-20T00:28:11.856Z,9.23
2023-04-20T00:29:12.197Z,9.21
2023-04-20T00:30:12.576Z,9.19
2023-04-20T00:31:12.970Z,9.18
2023-04-20T00:32:13.282Z,9.14
2023-04-20T00:33:13.631Z,9.14
2023-04-20T00:34:13.977Z,9.11
2023-04-20T00:35:14.316Z,9.13
2023-04-20T00:36:14.702Z,9.08
2023-04-20T00:37:15.001Z,9.06
2023-04-20T00:38:15.352Z,9.04
2023-04-20T00:39:15.877Z,9.03
2023-04-20T00:40:16.036Z,8.99
2023-04-20T00:41:16.401Z,8.95
2023-04-20T00:42:16.722Z,8.94
2023-04-20T00:43:17.073Z,8.88
2023-04-20T00:44:17.427Z,8.82
2023-04-20T00:45:17.781Z,8.74
2023-04-20T00:46:18.126Z,8.69
2023-04-20T00:47:18.453Z,8.63
2023-04-20T00:48:18.793Z,8.56
2023-04-20T00:49:19.524Z,8.51
2023-04-20T00:50:19.498Z,8.45
2023-04-20T00:51:19.849Z,8.36
2023-04-20T00:52:20.204Z,8.33
2023-04-20T00:53:20.540Z,8.33
2023-04-20T00:54:20.896Z,8.27
2023-04-20T00:55:21.302Z,8.20
2023-04-20T00:56:21.651Z,8.10
2023-04-20T00:57:21.930Z,8.00
2023-04-20T00:58:22.265Z,7.98
2023-04-20T00:59:22.621Z,7.93
2023-04-20T01:00:22.962Z,7.88
2023-04-20T01:01:23.357Z,7.82
2023-04-20T01:02:23.819Z,7.77
2023-04-20T01:03:24.169Z,7.72
2023-04-20T01:04:24.471Z,7.66
2023-04-20T01:05:24.749Z,7.60
2023-04-20T01:06:25.106Z,7.51
2023-04-20T01:07:25.457Z,7.50
2023-04-20T01:08:25.798Z,7.50
2023-04-20T01:09:26.144Z,7.50
2023-04-20T01:10:26.486Z,7.43
2023-04-20T01:11:26.856Z,7.38
2023-04-20T01:12:27.188Z,7.31
2023-04-20T01:13:27.530Z,7.24
2023-04-20T01:14:27.868Z,7.20
2023-04-20T01:15:28.246Z,7.20
2023-04-20T01:16:28.703Z,7.21
2023-04-20T01:17:29.043Z,7.25
2023-04-20T01:18:29.283Z,7.25
2023-04-20T01:19:29.610Z,7.29
2023-04-20T01:20:29.957Z,7.31
2023-04-20T01:21:30.308Z,7.29
2023-04-20T01:22:30.649Z,7.32
2023-04-20T01:23:30.980Z,7.29
2023-04-20T01:24:31.322Z,7.29
2023-04-20T01:25:31.662Z,7.28
2023-04-20T01:26:32.063Z,7.28
2023-04-20T01:27:32.393Z,7.32
2023-04-20T01:28:32.740Z,7.28
2023-04-20T01:29:33.075Z,7.28
2023-04-20T01:30:33.449Z,7.32
2023-04-20T01:31:33.894Z,7.33
2023-04-20T01:32:34.168Z,7.33
2023-04-20T01:33:34.485Z,7.36
2023-04-20T01:34:34.827Z,7.38
2023-04-20T01:35:35.158Z,7.36
2023-04-20T01:36:35.564Z,7.38
2023-04-20T01:37:35.854Z,7.42
2023-04-20T01:38:36.206Z,7.42
2023-04-20T01:39:36.582Z,7.45
2023-04-20T01:40:36.900Z,7.42
2023-04-20T01:41:37.260Z,7.43
2023-04-20T01:42:37.599Z,7.42
2023-04-20T01:43:38.257Z,7.42
2023-04-20T01:44:38.286Z,7.42
2023-04-20T01:45:38.623Z,7.43
2023-04-20T01:46:39.144Z,7.40
2023-04-20T01:47:39.344Z,7.35
2023-04-20T01:48:39.660Z,7.29
2023-04-20T01:49:40.006Z,7.23
2023-04-20T01:50:40.339Z,7.20
2023-04-20T01:51:40.707Z,7.15
2023-04-20T01:52:41.072Z,7.13
2023-04-20T01:53:41.404Z,7.10
2023-04-20T01:54:41.789Z,6.99
2023-04-20T01:55:42.075Z,6.93
2023-04-20T01:56:42.446Z,6.92
2023-04-20T01:57:42.768Z,6.87
2023-04-20T01:58:43.159Z,6.88
2023-04-20T01:59:43.483Z,6.89
2023-04-20T02:00:43.824Z,6.87
2023-04-20T02:01:44.176Z,6.85
2023-04-20T02:02:44.663Z,6.81
2023-04-20T02:03:45.039Z,6.82
2023-04-20T02:04:45.218Z,6.92
2023-04-20T02:05:45.588Z,6.96
2023-04-20T02:06:45.916Z,6.89
2023-04-20T02:07:46.264Z,6.88
2023-04-20T02:08:46.606Z,6.89
2023-04-20T02:09:46.946Z,6.87
2023-04-20T02:10:47.292Z,6.84
2023-04-20T02:11:47.666Z,6.82
2023-04-20T02:12:48.000Z,6.84
2023-04-20T02:13:48.340Z,6.84
2023-04-20T02:14:48.704Z,6.82
2023-04-20T02:15:49.064Z,6.81
2023-04-20T02:16:49.426Z,6.81
2023-04-20T02:17:49.798Z,6.81
2023-04-20T02:18:50.109Z,6.77
2023-04-20T02:19:50.452Z,6.74
2023-04-20T02:20:50.827Z,6.74
2023-04-20T02:21:51.186Z,6.70
2023-04-20T02:22:51.553Z,6.75
2023-04-20T02:23:51.881Z,6.77
2023-04-20T02:24:52.211Z,6.77
2023-04-20T02:25:52.556Z,6.82
2023-04-20T02:26:52.912Z,6.84
2023-04-20T02:27:53.242Z,6.85
2023-04-20T02:28:53.610Z,6.92
2023-04-20T02:29:53.952Z,6.93
2023-04-20T02:30:54.323Z,6.92
2023-04-20T02:31:54.666Z,6.95
2023-04-20T02:32:55.047Z,6.96
2023-04-20T02:33:55.366Z,7.00
2023-04-20T02:34:55.698Z,7.02
2023-04-20T02:35:56.038Z,7.07
2023-04-20T02:36:56.410Z,7.10
2023-04-20T02:37:56.716Z,7.10
2023-04-20T02:38:57.058Z,7.07
2023-04-20T02:39:57.409Z,7.05
2023-04-20T02:40:57.759Z,7.07
2023-04-20T02:41:58.116Z,7.13
2023-04-20T02:42:58.458Z,7.14
2023-04-20T02:43:58.794Z,7.13
2023-04-20T02:44:59.158Z,7.10
2023-04-20T02:45:59.511Z,7.06
2023-04-20T02:46:59.868Z,7.06
2023-04-20T02:48:00.200Z,7.10
2023-04-20T02:49:00.518Z,7.05
2023-04-20T02:50:00.862Z,7.06
2023-04-20T02:51:01.231Z,7.05
2023-04-20T02:52:01.588Z,7.06
2023-04-20T02:53:01.892Z,7.06
2023-04-20T02:54:02.228Z,7.11
2023-04-20T02:55:02.587Z,7.07
2023-04-20T02:56:02.939Z,7.07
2023-04-20T02:57:03.294Z,7.14
2023-04-20T02:58:03.657Z,7.15
2023-04-20T02:59:04.016Z,7.13
2023-04-20T03:00:04.364Z,7.13
2023-04-20T03:01:04.723Z,7.14
2023-04-20T03:02:05.155Z,7.13
2023-04-20T03:03:05.617Z,7.11
2023-04-20T03:04:05.970Z,7.11
2023-04-20T03:05:06.170Z,7.13
2023-04-20T03:06:06.508Z,7.11
2023-04-20T03:07:07.028Z,7.11
2023-04-20T03:08:07.224Z,7.11
2023-04-20T03:09:07.609Z,7.11
2023-04-20T03:10:07.918Z,7.13
2023-04-20T03:11:08.254Z,7.11
2023-04-20T03:12:08.621Z,7.07
2023-04-20T03:13:08.951Z,7.11
2023-04-20T03:14:09.326Z,7.07
2023-04-20T03:15:09.735Z,7.07
2023-04-20T03:16:10.014Z,7.07
2023-04-20T03:17:10.378Z,7.07
2023-04-20T03:18:10.741Z,7.07
2023-04-20T03:19:11.092Z,7.06
2023-04-20T03:20:11.452Z,7.06
2023-04-20T03:21:11.769Z,7.07
2023-04-20T03:22:12.123Z,7.10
2023-04-20T03:23:12.473Z,7.05
2023-04-20T03:24:12.814Z,7.02
2023-04-20T03:25:13.233Z,7.00
2023-04-20T03:26:13.542Z,6.96
2023-04-20T03:27:13.881Z,6.95
2023-04-20T03:28:14.200Z,6.89
2023-04-20T03:29:14.546Z,6.92
2023-04-20T03:30:14.952Z,6.87
2023-04-20T03:31:15.260Z,6.84
2023-04-20T03:32:15.581Z,6.82
2023-04-20T03:33:15.934Z,6.82
2023-04-20T03:34:16.255Z,6.84
2023-04-20T03:35:16.597Z,6.81
2023-04-20T03:36:16.969Z,6.81
2023-04-20T03:37:17.369Z,6.78
2023-04-20T03:38:17.698Z,6.77
2023-04-20T03:39:18.371Z,6.78
2023-04-20T03:40:18.407Z,6.75
2023-04-20T03:41:18.723Z,6.72
2023-04-20T03:42:18.945Z,6.70
2023-04-20T03:43:19.215Z,6.67
2023-04-20T03:44:19.585Z,6.66
2023-04-20T03:45:19.818Z,6.63
2023-04-20T03:46:22.020Z,6.63
2023-04-20T03:47:20.442Z,6.62
2023-04-20T03:48:20.676Z,6.63
2023-04-20T03:49:20.949Z,6.66
2023-04-20T03:50:21.240Z,6.66
2023-04-20T03:51:21.537Z,6.63
2023-04-20T03:52:21.863Z,6.63
2023-04-20T03:53:22.128Z,6.63
2023-04-20T03:54:22.404Z,6.62
2023-04-20T03:55:22.693Z,6.62
2023-04-20T03:56:22.981Z,6.60
2023-04-20T03:57:23.286Z,6.59
2023-04-20T03:58:23.553Z,6.57
2023-04-20T03:59:23.834Z,6.59
2023-04-20T04:00:24.115Z,6.56
2023-04-20T04:01:24.419Z,6.49
2023-04-20T04:02:24.691Z,6.48
2023-04-20T04:03:24.901Z,6.45
2023-04-20T04:04:25.131Z,6.41
2023-04-20T04:05:25.391Z,6.38
2023-04-20T04:06:25.481Z,6.35
2023-04-20T04:07:25.800Z,6.31
2023-04-20T04:08:25.949Z,6.33
2023-04-20T04:09:26.268Z,6.30
2023-04-20T04:10:26.420Z,6.28
2023-04-20T04:11:26.587Z,6.24
2023-04-20T04:12:26.868Z,6.22
2023-04-20T04:13:27.139Z,6.17
2023-04-20T04:14:27.305Z,6.19
2023-04-20T04:15:27.602Z,6.14
2023-04-20T04:16:27.953Z,6.14
2023-04-20T04:17:28.116Z,6.12
2023-04-20T04:18:28.394Z,6.12
2023-04-20T04:19:28.665Z,6.16
2023-04-20T04:20:28.928Z,6.14
2023-04-20T04:21:29.223Z,6.14
2023-04-20T04:22:30.544Z,6.11
2023-04-20T04:23:29.786Z,6.12
2023-04-20T04:24:30.090Z,6.12
2023-04-20T04:25:30.381Z,6.09
2023-04-20T04:26:30.657Z,6.08
2023-04-20T04:27:30.972Z,6.08
2023-04-20T04:28:31.114Z,6.07
2023-04-20T04:29:31.293Z,6.05
2023-04-20T04:30:31.578Z,6.02
2023-04-20T04:31:31.905Z,6.07
2023-04-20T04:32:32.221Z,6.08
2023-04-20T04:33:32.487Z,6.09
2023-04-20T04:34:32.653Z,6.07
2023-04-20T04:35:32.840Z,6.05
2023-04-20T04:36:32.984Z,6.02
2023-04-20T04:37:33.342Z,6.04
2023-04-20T04:38:33.577Z,6.02
2023-04-20T04:39:33.738Z,6.04
2023-04-20T04:40:33.903Z,5.99
2023-04-20T04:41:34.082Z,5.99
2023-04-20T04:42:34.288Z,6.01
2023-04-20T04:43:34.416Z,5.97
2023-04-20T04:44:34.605Z,5.98
2023-04-20T04:45:34.778Z,5.97
2023-04-20T04:46:35.104Z,5.97
2023-04-20T04:47:35.306Z,5.94
2023-04-20T04:48:35.410Z,5.98
2023-04-20T04:49:35.581Z,5.98
2023-04-20T04:50:35.746Z,5.99
2023-04-20T04:51:35.917Z,5.98
2023-04-20T04:52:36.133Z,5.98
2023-04-20T04:53:36.373Z,5.97
2023-04-20T04:54:36.534Z,5.94
2023-04-20T04:55:36.715Z,5.93
2023-04-20T04:56:36.881Z,5.97
2023-04-20T04:57:37.071Z,5.94
2023-04-20T04:58:37.222Z,5.91
2023-04-20T04:59:37.400Z,5.97
2023-04-20T05:00:37.572Z,5.94
2023-04-20T05:01:37.771Z,5.93
2023-04-20T05:02:38.147Z,5.94
2023-04-20T05:03:38.172Z,5.94
2023-04-20T05:04:38.379Z,5.93
2023-04-20T05:05:38.448Z,5.93
2023-04-20T05:06:38.613Z,5.91
2023-04-20T05:07:38.797Z,5.93
2023-04-20T05:08:39.062Z,5.97
2023-04-20T05:09:39.351Z,5.98
2023-04-20T05:10:39.514Z,5.98
2023-04-20T05:11:39.705Z,5.94
2023-04-20T05:12:39.872Z,5.93
2023-04-20T05:13:40.155Z,5.98
2023-04-20T05:14:40.304Z,5.99
2023-04-20T05:15:42.043Z,5.97
2023-04-20T05:16:40.908Z,5.97
2023-04-20T05:17:41.115Z,5.91
2023-04-20T05:18:41.355Z,5.94
2023-04-20T05:19:41.638Z,5.97
2023-04-20T05:20:41.807Z,5.97
2023-04-20T05:21:41.971Z,5.98
2023-04-20T05:22:42.162Z,5.97
2023-04-20T05:23:42.324Z,5.97
2023-04-20T05:24:42.493Z,5.94
2023-04-20T05:25:42.661Z,5.91
2023-04-20T05:26:42.859Z,5.91
2023-04-20T05:27:43.149Z,5.93
2023-04-20T05:28:43.420Z,5.87
2023-04-20T05:29:43.584Z,5.89
2023-04-20T05:30:43.749Z,5.87
2023-04-20T05:31:43.966Z,5.89
2023-04-20T05:32:44.128Z,5.87
2023-04-20T05:33:44.267Z,5.90
2023-04-20T05:34:44.442Z,5.87
2023-04-20T05:35:44.612Z,5.87
2023-04-20T05:36:44.791Z,5.86
2023-04-20T05:37:45.011Z,5.87
2023-04-20T05:38:45.137Z,5.89
2023-04-20T05:39:45.406Z,5.89
2023-04-20T05:40:46.038Z,5.94
2023-04-20T05:41:45.898Z,5.98
2023-04-20T05:42:46.092Z,5.99
2023-04-20T05:43:46.207Z,5.98
2023-04-20T05:44:46.383Z,5.97
2023-04-20T05:45:46.772Z,5.98
2023-04-20T05:46:46.868Z,5.94
2023-04-20T05:47:47.133Z,5.94
2023-04-20T05:48:47.198Z,5.94
2023-04-20T05:49:47.384Z,5.91
2023-04-20T05:50:47.603Z,5.93
2023-04-20T05:51:47.712Z,5.91
2023-04-20T05:52:47.898Z,5.91
2023-04-20T05:53:48.070Z,5.91
2023-04-20T05:54:48.228Z,5.90
2023-04-20T05:55:48.556Z,5.91
2023-04-20T05:56:48.690Z,5.93
2023-04-20T05:57:48.952Z,5.93
2023-04-20T05:58:49.044Z,5.91
2023-04-20T05:59:49.222Z,5.97
2023-04-20T06:00:49.526Z,5.97
2023-04-20T06:01:49.821Z,5.93
2023-04-20T06:02:50.357Z,5.93
2023-04-20T06:03:50.629Z,5.93
2023-04-20T06:04:50.724Z,5.94
2023-04-20T06:05:50.752Z,5.93
2023-04-20T06:06:51.043Z,5.94
2023-04-20T06:07:51.242Z,5.97
2023-04-20T06:08:51.387Z,5.94
2023-04-20T06:09:51.582Z,5.98
2023-04-20T06:10:51.747Z,5.97
2023-04-20T06:11:51.940Z,6.02
2023-04-20T06:12:52.121Z,6.01
2023-04-20T06:13:52.293Z,5.99
2023-04-20T06:14:52.589Z,6.02
2023-04-20T06:15:52.960Z,6.04
2023-04-20T06:16:52.953Z,6.07
2023-04-20T06:17:53.656Z,6.07
2023-04-20T06:18:53.431Z,6.05
2023-04-20T06:19:53.604Z,6.04
2023-04-20T06:20:53.780Z,6.08
2023-04-20T06:21:54.111Z,6.09
2023-04-20T06:22:54.290Z,6.04
2023-04-20T06:23:54.444Z,6.08
2023-04-20T06:24:54.747Z,6.08
2023-04-20T06:25:55.052Z,6.11
2023-04-20T06:26:55.228Z,6.11
2023-04-20T06:27:55.542Z,6.14
2023-04-20T06:28:55.818Z,6.19
2023-04-20T06:29:55.996Z,6.14
2023-04-20T06:30:56.337Z,6.11
2023-04-20T06:31:56.479Z,6.12
2023-04-20T06:32:56.730Z,6.09
2023-04-20T06:33:56.836Z,6.12
2023-04-20T06:34:57.148Z,6.14
2023-04-20T06:35:57.323Z,6.12
2023-04-20T06:36:57.620Z,6.14
2023-04-20T06:37:57.905Z,6.14
2023-04-20T06:38:58.006Z,6.17
2023-04-20T06:39:58.177Z,6.20
2023-04-20T06:40:58.361Z,6.22
2023-04-20T06:41:58.540Z,6.30
2023-04-20T06:42:58.724Z,6.30
2023-04-20T06:43:58.880Z,6.28
2023-04-20T06:44:59.190Z,6.30
2023-04-20T06:45:59.356Z,6.30
2023-04-20T06:46:59.666Z,6.35
2023-04-20T06:48:00.013Z,6.36
2023-04-20T06:49:00.164Z,6.30
2023-04-20T06:50:00.461Z,6.33
2023-04-20T06:51:00.746Z,6.38
2023-04-20T06:52:00.932Z,6.36
2023-04-20T06:53:01.217Z,6.41
2023-04-20T06:54:01.391Z,6.35
2023-04-20T06:55:01.708Z,6.44
2023-04-20T06:56:01.984Z,6.51
2023-04-20T06:57:02.296Z,6.48
2023-04-20T06:58:02.604Z,6.51
2023-04-20T06:59:02.773Z,6.48
2023-04-20T07:00:03.059Z,6.51
2023-04-20T07:01:03.360Z,6.54
2023-04-20T07:02:03.756Z,6.49
2023-04-20T07:03:03.841Z,6.54
2023-04-20T07:04:03.984Z,6.51
2023-04-20T07:05:04.124Z,6.49
2023-04-20T07:06:04.405Z,6.46
2023-04-20T07:07:04.569Z,6.44
2023-04-20T07:08:04.898Z,6.46
2023-04-20T07:09:05.175Z,6.44
2023-04-20T07:10:05.483Z,6.46
2023-04-20T07:11:05.671Z,6.51
2023-04-20T07:12:05.972Z,6.52
2023-04-20T07:13:06.150Z,6.52
2023-04-20T07:14:06.321Z,6.54
2023-04-20T07:15:06.497Z,6.56
2023-04-20T07:16:06.717Z,6.56
2023-04-20T07:17:06.968Z,6.57
2023-04-20T07:18:07.360Z,6.54
2023-04-20T07:19:07.458Z,6.52
2023-04-20T07:20:07.692Z,6.54
2023-04-20T07:21:07.803Z,6.48
2023-04-20T07:22:08.109Z,6.49
2023-04-20T07:23:08.306Z,6.57
2023-04-20T07:24:08.506Z,6.60
2023-04-20T07:25:08.689Z,6.60
2023-04-20T07:26:08.825Z,6.60
2023-04-20T07:27:09.031Z,6.60
2023-04-20T07:28:09.218Z,6.57
2023-04-20T07:29:09.372Z,6.59
2023-04-20T07:30:09.565Z,6.57
2023-04-20T07:31:09.872Z,6.57
2023-04-20T07:32:10.075Z,6.60
2023-04-20T07:33:10.403Z,6.60
2023-04-20T07:34:10.532Z,6.60
2023-04-20T07:35:10.725Z,6.60
2023-04-20T07:36:10.906Z,6.59
2023-04-20T07:37:11.073Z,6.60
2023-04-20T07:38:11.313Z,6.56
2023-04-20T07:39:11.561Z,6.60
2023-04-20T07:40:11.886Z,6.59
2023-04-20T07:41:12.158Z,6.59
2023-04-20T07:42:12.459Z,6.59
2023-04-20T07:43:12.780Z,6.64
2023-04-20T07:44:12.936Z,6.67
2023-04-20T07:45:13.118Z,6.63
2023-04-20T07:46:13.349Z,6.60
2023-04-20T07:47:13.587Z,6.62
2023-04-20T07:48:13.997Z,6.62
2023-04-20T07:49:14.186Z,6.66
2023-04-20T07:50:14.481Z,6.59
2023-04-20T07:51:14.677Z,6.66
2023-04-20T07:52:17.372Z,6.70
2023-04-20T07:53:15.179Z,6.64
2023-04-20T07:54:15.341Z,6.64
2023-04-20T07:55:15.512Z,6.69
2023-04-20T07:56:15.939Z,6.75
2023-04-20T07:57:16.111Z,6.77
2023-04-20T07:58:16.429Z,6.77
2023-04-20T07:59:16.861Z,6.70
2023-04-20T08:00:16.917Z,6.74
2023-04-20T08:01:17.204Z,6.75
2023-04-20T08:02:17.448Z,6.74
2023-04-20T08:03:17.770Z,6.69
2023-04-20T08:04:17.943Z,6.67
2023-04-20T08:05:18.313Z,6.69
2023-04-20T08:06:18.224Z,6.69
2023-04-20T08:07:18.531Z,6.67
2023-04-20T08:08:18.723Z,6.74
2023-04-20T08:09:19.200Z,6.74
2023-04-20T08:10:19.313Z,6.74
2023-04-20T08:11:19.594Z,6.77
2023-04-20T08:12:19.900Z,6.79
2023-04-20T08:13:20.219Z,6.79
2023-04-20T08:14:21.366Z,6.74
2023-04-20T08:15:20.864Z,6.74
2023-04-20T08:16:21.031Z,6.70
2023-04-20T08:17:21.056Z,6.74
2023-04-20T08:18:21.571Z,6.78
2023-04-20T08:19:21.425Z,6.78
2023-04-20T08:20:21.615Z,6.74
2023-04-20T08:21:22.382Z,6.75
2023-04-20T08:22:22.081Z,6.79
2023-04-20T08:23:22.267Z,6.75
2023-04-20T08:24:22.428Z,6.75
2023-04-20T08:25:24.281Z,6.79
2023-04-20T08:26:22.904Z,6.79
2023-04-20T08:27:23.215Z,6.82
2023-04-20T08:28:33.263Z,6.87
2023-04-20T08:29:23.560Z,6.88
2023-04-20T08:30:23.733Z,6.85
2023-04-20T08:31:24.104Z,6.87
2023-04-20T08:32:24.395Z,6.85
2023-04-20T08:33:24.534Z,6.85
2023-04-20T08:34:24.811Z,6.82
2023-04-20T08:35:25.006Z,6.82
2023-04-20T08:36:25.310Z,6.84
2023-04-20T08:37:25.498Z,6.82
2023-04-20T08:38:33.837Z,6.81
2023-04-20T08:39:26.129Z,6.79
2023-04-20T08:40:26.379Z,6.82
2023-04-20T08:41:26.553Z,6.82
2023-04-20T08:42:26.849Z,6.85
2023-04-20T08:43:27.167Z,6.85
2023-04-20T08:44:27.446Z,6.81
2023-04-20T08:45:27.634Z,6.84
2023-04-20T08:46:27.914Z,6.81
2023-04-20T08:47:28.019Z,6.81
2023-04-20T08:48:28.286Z,6.81
2023-04-20T08:49:28.582Z,6.81
2023-04-20T08:50:28.875Z,6.82
2023-04-20T08:51:29.185Z,6.84
2023-04-20T08:52:29.478Z,6.85
2023-04-20T08:53:29.669Z,6.93
2023-04-20T08:54:29.832Z,6.88
2023-04-20T08:55:30.127Z,6.88
2023-04-20T08:56:30.299Z,6.89
2023-04-20T08:57:30.610Z,6.89
2023-04-20T08:58:30.917Z,6.95
2023-04-20T08:59:31.089Z,6.96
2023-04-20T09:00:31.377Z,6.95
2023-04-20T09:01:35.540Z,6.95
2023-04-20T09:02:32.137Z,6.96
2023-04-20T09:03:32.426Z,6.99
2023-04-20T09:04:32.478Z,6.97
2023-04-20T09:05:32.704Z,6.95
2023-04-20T09:06:32.844Z,7.02
2023-04-20T09:07:33.039Z,7.15
2023-04-20T09:08:33.230Z,7.17
2023-04-20T09:09:33.436Z,7.28
2023-04-20T09:10:33.592Z,7.28
2023-04-20T09:11:33.758Z,7.29
2023-04-20T09:12:33.940Z,7.32
2023-04-20T09:13:34.264Z,7.31
2023-04-20T09:14:34.418Z,7.33
2023-04-20T09:15:34.722Z,7.36
2023-04-20T09:16:35.141Z,7.35
2023-04-20T09:17:35.257Z,7.36
2023-04-20T09:18:35.395Z,7.36
2023-04-20T09:19:35.714Z,7.33
2023-04-20T09:20:35.752Z,7.40
2023-04-20T09:21:36.063Z,7.45
2023-04-20T09:22:36.340Z,7.47
2023-04-20T09:23:36.548Z,7.45
2023-04-20T09:24:36.703Z,7.40
2023-04-20T09:25:37.020Z,7.42
2023-04-20T09:26:37.201Z,7.42
2023-04-20T09:27:37.380Z,7.33
2023-04-20T09:28:37.562Z,7.39
2023-04-20T09:29:37.710Z,7.33
2023-04-20T09:30:37.894Z,7.39
2023-04-20T09:31:38.238Z,7.43
2023-04-20T09:32:38.549Z,7.40
2023-04-20T09:33:38.697Z,7.38
2023-04-20T09:34:38.872Z,7.38
2023-04-20T09:35:39.059Z,7.39
2023-04-20T09:36:39.231Z,7.35
2023-04-20T09:37:39.558Z,7.33
2023-04-20T09:38:39.859Z,7.38
2023-04-20T09:39:40.012Z,7.42
2023-04-20T09:40:40.183Z,7.45
2023-04-20T09:41:40.509Z,7.45
2023-04-20T09:42:40.676Z,7.48
2023-04-20T09:43:40.985Z,7.47
2023-04-20T09:44:41.158Z,7.47
2023-04-20T09:45:41.495Z,7.51
2023-04-20T09:46:41.652Z,7.47
2023-04-20T09:47:42.000Z,7.54
2023-04-20T09:48:42.149Z,7.61
2023-04-20T09:49:42.317Z,7.67
2023-04-20T09:50:49.344Z,7.67
2023-04-20T09:51:42.698Z,7.77
2023-04-20T09:52:42.989Z,7.83
2023-04-20T09:53:43.191Z,7.93
2023-04-20T09:54:43.461Z,8.00
2023-04-20T09:55:43.628Z,7.88
2023-04-20T09:56:43.944Z,7.85
2023-04-20T09:57:44.117Z,7.94
2023-04-20T09:58:44.432Z,7.91
2023-04-20T09:59:44.605Z,7.95
2023-04-20T10:00:44.803Z,7.88
2023-04-20T10:01:44.999Z,7.88
2023-04-20T10:02:45.395Z,7.97
2023-04-20T10:03:45.607Z,8.08
2023-04-20T10:04:45.664Z,7.97
2023-04-20T10:05:45.930Z,7.91
2023-04-20T10:06:46.239Z,7.75
2023-04-20T10:07:46.411Z,7.73
2023-04-20T10:08:46.721Z,7.75
2023-04-20T10:09:46.877Z,7.87
2023-04-20T10:10:47.189Z,7.76
2023-04-20T10:11:53.266Z,7.77
2023-04-20T10:12:47.562Z,7.88
2023-04-20T10:13:47.752Z,7.85
2023-04-20T10:14:48.042Z,7.83
2023-04-20T10:15:48.243Z,7.79
2023-04-20T10:16:48.532Z,7.85
2023-04-20T10:17:48.757Z,7.83
2023-04-20T10:18:48.973Z,7.94
2023-04-20T10:19:49.045Z,7.97
2023-04-20T10:20:49.359Z,7.95
2023-04-20T10:21:49.526Z,7.98
2023-04-20T10:22:49.733Z,8.06
2023-04-20T10:23:49.926Z,8.01
2023-04-20T10:24:50.062Z,8.06
2023-04-20T10:25:50.402Z,8.06
2023-04-20T10:26:50.648Z,8.08
2023-04-20T10:27:50.949Z,8.13
2023-04-20T10:28:51.246Z,8.09
2023-04-20T10:29:51.556Z,8.15
2023-04-20T10:30:51.898Z,8.15
2023-04-20T10:31:51.921Z,8.15
2023-04-20T10:32:52.268Z,8.13
2023-04-20T10:33:52.393Z,8.19
2023-04-20T10:34:52.696Z,8.26
2023-04-20T10:35:53.007Z,8.26
2023-04-20T10:36:53.179Z,8.28
2023-04-20T10:37:53.469Z,8.28
2023-04-20T10:38:53.772Z,8.30
2023-04-20T10:39:54.090Z,8.28
2023-04-20T10:40:54.338Z,8.30
2023-04-20T10:41:54.461Z,8.34
2023-04-20T10:42:54.623Z,8.33
2023-04-20T10:43:54.915Z,8.37
2023-04-20T10:44:55.108Z,8.42
2023-04-20T10:45:55.331Z,8.49
2023-04-20T10:46:55.500Z,8.60
2023-04-20T10:47:55.797Z,8.60
2023-04-20T10:48:56.053Z,8.69
2023-04-20T10:49:56.345Z,8.69
2023-04-20T10:50:56.670Z,8.74
2023-04-20T10:51:59.600Z,8.74
2023-04-20T10:52:57.120Z,8.71
2023-04-20T10:53:57.473Z,8.73
2023-04-20T10:54:57.646Z,8.70
2023-04-20T10:55:57.929Z,8.71
2023-04-20T10:56:58.117Z,8.74
2023-04-20T10:57:58.304Z,8.74
2023-04-20T10:58:59.943Z,8.76
2023-04-20T10:59:58.758Z,8.73
2023-04-20T11:00:59.125Z,8.71
2023-04-20T11:01:59.506Z,8.69
2023-04-20T11:02:59.763Z,8.70
2023-04-20T11:04:00.014Z,8.70
2023-04-20T11:05:00.194Z,8.71
2023-04-20T11:06:00.438Z,8.74
2023-04-20T11:07:00.620Z,8.69
2023-04-20T11:08:00.799Z,8.70
2023-04-20T11:09:00.974Z,8.73
2023-04-20T11:10:01.152Z,8.76
2023-04-20T11:11:01.340Z,8.85
2023-04-20T11:12:01.628Z,8.88
2023-04-20T11:13:01.803Z,8.89
2023-04-20T11:14:01.983Z,8.87
2023-04-20T11:15:02.155Z,8.85
2023-04-20T11:16:02.373Z,8.89
2023-04-20T11:17:02.644Z,8.91
2023-04-20T11:18:02.859Z,8.99
2023-04-20T11:19:03.012Z,9.02
2023-04-20T11:20:03.176Z,9.08
2023-04-20T11:21:03.474Z,9.02
2023-04-20T11:22:03.632Z,9.08
2023-04-20T11:23:03.932Z,9.06
2023-04-20T11:24:04.103Z,9.08
2023-04-20T11:25:04.402Z,9.11
2023-04-20T11:26:04.600Z,9.11
2023-04-20T11:27:05.036Z,9.06
2023-04-20T11:28:05.049Z,9.08
2023-04-20T11:29:05.351Z,9.14
2023-04-20T11:30:05.664Z,9.08
2023-04-20T11:31:05.873Z,9.10
2023-04-20T11:32:06.049Z,9.13
2023-04-20T11:33:06.425Z,9.21
2023-04-20T11:34:07.194Z,9.16
2023-04-20T11:35:07.385Z,9.21
2023-04-20T11:36:06.994Z,9.21
2023-04-20T11:37:07.175Z,9.18
2023-04-20T11:38:07.341Z,9.23
2023-04-20T11:39:07.695Z,9.28
2023-04-20T11:40:07.951Z,9.25
2023-04-20T11:41:08.183Z,9.22
2023-04-20T11:42:08.428Z,9.23
2023-04-20T11:43:08.598Z,9.22
2023-04-20T11:44:08.773Z,9.25
2023-04-20T11:45:08.965Z,9.21
2023-04-20T11:46:09.154Z,9.22
2023-04-20T11:47:09.314Z,9.18
2023-04-20T11:48:09.581Z,9.19
2023-04-20T11:49:09.790Z,9.18
2023-04-20T11:50:09.980Z,9.19
2023-04-20T11:51:10.329Z,9.22
2023-04-20T11:52:10.463Z,9.22
2023-04-20T11:53:10.763Z,9.22
2023-04-20T11:54:11.059Z,9.23
2023-04-20T11:55:11.368Z,9.28
2023-04-20T11:56:11.696Z,9.21
2023-04-20T11:57:11.854Z,9.23
2023-04-20T11:58:12.021Z,9.19
2023-04-20T11:59:12.229Z,9.16
2023-04-20T12:00:12.426Z,9.11
2023-04-20T12:01:12.613Z,9.11
2023-04-20T12:02:12.957Z,9.10
2023-04-20T12:03:13.411Z,9.11
2023-04-20T12:04:13.606Z,9.18
2023-04-20T12:05:13.751Z,9.16
2023-04-20T12:06:13.873Z,9.13
2023-04-20T12:07:14.094Z,9.16
2023-04-20T12:08:14.331Z,9.21
2023-04-20T12:09:14.504Z,9.29
2023-04-20T12:10:14.690Z,9.34
2023-04-20T12:11:14.884Z,9.28
2023-04-20T12:12:15.151Z,9.31
2023-04-20T12:13:15.451Z,9.32
2023-04-20T12:14:15.742Z,9.34
2023-04-20T12:15:16.054Z,9.36
2023-04-20T12:16:16.396Z,9.37
2023-04-20T12:17:16.519Z,9.29
2023-04-20T12:18:16.836Z,9.34
2023-04-20T12:19:17.387Z,9.40
2023-04-20T12:20:17.181Z,9.32
2023-04-20T12:21:17.513Z,9.36
2023-04-20T12:22:17.787Z,9.39
2023-04-20T12:23:17.986Z,9.40
2023-04-20T12:24:18.260Z,9.40
2023-04-20T12:25:18.445Z,9.32
2023-04-20T12:26:18.633Z,9.29
2023-04-20T12:27:18.802Z,9.23
2023-04-20T12:28:18.970Z,9.25
2023-04-20T12:29:19.472Z,9.26
2023-04-20T12:30:19.571Z,9.31
2023-04-20T12:31:19.818Z,9.32
2023-04-20T12:32:19.957Z,9.32
2023-04-20T12:33:20.099Z,9.37
2023-04-20T12:34:20.559Z,9.39
2023-04-20T12:35:20.699Z,9.36
2023-04-20T12:36:21.024Z,9.39
2023-04-20T12:37:21.306Z,9.46
2023-04-20T12:38:21.476Z,9.47
2023-04-20T12:39:21.659Z,9.47
2023-04-20T12:40:21.839Z,9.39
2023-04-20T12:41:22.188Z,9.40
2023-04-20T12:42:22.422Z,9.32
2023-04-20T12:43:22.621Z,9.39
2023-04-20T12:44:22.767Z,9.54
2023-04-20T12:45:22.964Z,9.47
2023-04-20T12:46:23.354Z,9.41
2023-04-20T12:47:23.584Z,9.39
2023-04-20T12:48:23.759Z,9.40
2023-04-20T12:49:23.926Z,9.47
2023-04-20T12:50:24.229Z,9.39
2023-04-20T12:51:24.418Z,9.39
2023-04-20T12:52:24.587Z,9.41
2023-04-20T12:53:24.899Z,9.46
2023-04-20T12:54:25.058Z,9.37
2023-04-20T12:55:25.241Z,9.26
2023-04-20T12:56:25.560Z,9.22
2023-04-20T12:57:25.730Z,9.28
2023-04-20T12:58:25.911Z,9.21
2023-04-20T12:59:26.094Z,9.10
2023-04-20T13:00:26.244Z,9.02
2023-04-20T13:01:26.670Z,9.02
2023-04-20T13:02:26.874Z,9.04
2023-04-20T13:03:27.121Z,8.95
2023-04-20T13:04:27.160Z,8.92
2023-04-20T13:05:27.408Z,8.95
2023-04-20T13:06:27.583Z,8.95
2023-04-20T13:07:27.805Z,8.99
2023-04-20T13:08:28.050Z,9.06
2023-04-20T13:09:28.357Z,9.11
2023-04-20T13:10:28.537Z,9.11
2023-04-20T13:11:28.893Z,9.13
2023-04-20T13:12:29.144Z,9.08
2023-04-20T13:13:29.322Z,9.06
2023-04-20T13:14:29.631Z,9.08
2023-04-20T13:15:39.081Z,9.11
2023-04-20T13:16:30.060Z,9.11
2023-04-20T13:17:30.187Z,9.06
2023-04-20T13:18:30.330Z,9.14
2023-04-20T13:19:30.616Z,9.19
2023-04-20T13:20:30.913Z,9.26
2023-04-20T13:21:31.113Z,9.26